Time;durP1;ratioP1;P1;durP2;ratioP2;P2;SDS_P1;SDS_P2;PMS_P1;PMS_P2;Temp;Humidity;BMP_temperature;BMP_pressure;BME280_temperature;BME280_humidity;BME280_pressure;Samples;Min_cycle;Max_cycle;Signal;HPM_P1;HPM_P2
2022/09/17 00:01:19;;;;;;;6.10;3.30;;;11.60;99.90;;;;;;5093941;28;20457;-70
2022/09/17 00:03:51;;;;;;;9.73;3.53;;;11.60;99.90;;;;;;5094165;28;20475;-70
2022/09/17 00:06:18;;;;;;;8.20;3.10;;;11.50;99.90;;;;;;5094268;28;20532;-70
2022/09/17 00:08:45;;;;;;;7.87;2.90;;;11.50;99.90;;;;;;5093972;28;20457;-69
2022/09/17 00:11:14;;;;;;;8.60;2.53;;;11.50;99.90;;;;;;5093820;28;20481;-70
2022/09/17 00:13:41;;;;;;;7.63;2.83;;;11.60;99.90;;;;;;5094150;28;20456;-70
2022/09/17 00:16:09;;;;;;;5.90;2.63;;;11.60;99.90;;;;;;5096408;28;20467;-70
2022/09/17 00:18:40;;;;;;;5.27;3.23;;;11.60;99.90;;;;;;5098968;28;20527;-71
2022/09/17 00:21:07;;;;;;;5.43;2.70;;;11.60;99.90;;;;;;5098716;28;20449;-71
2022/09/17 00:23:34;;;;;;;5.73;2.73;;;11.60;99.90;;;;;;5096938;28;20491;-70
2022/09/17 00:26:06;;;;;;;9.00;2.97;;;11.60;99.90;;;;;;5096382;28;20488;-70
2022/09/17 00:28:33;;;;;;;6.73;3.17;;;11.70;99.90;;;;;;5096236;28;20774;-70
2022/09/17 00:31:00;;;;;;;8.83;3.27;;;11.70;99.90;;;;;;5095758;28;20449;-69
2022/09/17 00:33:27;;;;;;;9.27;3.67;;;11.70;99.90;;;;;;5095911;28;20449;-70
2022/09/17 00:36:00;;;;;;;8.00;3.00;;;11.70;99.90;;;;;;5095223;28;20551;-70
2022/09/17 00:38:26;;;;;;;3.53;2.33;;;11.70;99.90;;;;;;5095239;28;20529;-70
2022/09/17 00:40:53;;;;;;;8.50;3.33;;;11.80;99.90;;;;;;5095297;28;20457;-69
2022/09/17 00:43:34;;;;;;;4.40;3.00;;;11.80;99.90;;;;;;5095216;28;20557;-69
2022/09/17 00:46:03;;;;;;;9.83;4.33;;;11.80;99.90;;;;;;5095300;28;20535;-69
2022/09/17 00:48:30;;;;;;;5.97;3.17;;;11.80;99.90;;;;;;5095350;28;20483;-69
2022/09/17 00:51:01;;;;;;;5.87;3.27;;;11.80;99.90;;;;;;5095274;28;20453;-68
2022/09/17 00:53:29;;;;;;;8.67;3.33;;;11.80;99.90;;;;;;5097036;28;20437;-69
2022/09/17 00:56:02;;;;;;;6.70;3.27;;;11.80;99.90;;;;;;5095978;28;20530;-70
2022/09/17 00:58:32;;;;;;;8.30;3.07;;;11.80;99.90;;;;;;5095734;28;20441;-69
2022/09/17 01:00:59;;;;;;;12.60;3.80;;;11.80;99.90;;;;;;5095799;28;20968;-68
2022/09/17 01:03:26;;;;;;;5.53;3.10;;;11.80;99.90;;;;;;5096145;28;20522;-68
2022/09/17 01:06:01;;;;;;;7.20;3.30;;;11.80;99.90;;;;;;5095586;28;20801;-70
2022/09/17 01:08:34;;;;;;;10.10;3.10;;;11.90;99.90;;;;;;5095298;28;20451;-69
2022/09/17 01:11:24;;;;;;;9.43;3.63;;;11.90;99.90;;;;;;5095989;28;20520;-70
2022/09/17 01:14:07;;;;;;;7.00;2.77;;;11.90;99.90;;;;;;5095049;28;20770;-71
2022/09/17 01:16:41;;;;;;;10.00;3.10;;;11.90;99.90;;;;;;5095209;28;20441;-71
2022/09/17 01:19:28;;;;;;;7.00;3.50;;;12.00;99.90;;;;;;5094836;28;20452;-70
2022/09/17 01:22:01;;;;;;;8.80;3.00;;;12.00;99.90;;;;;;5095202;28;20539;-70
2022/09/17 01:24:50;;;;;;;5.17;2.87;;;12.00;99.90;;;;;;5094367;28;21032;-68
2022/09/17 01:27:47;;;;;;;5.13;2.50;;;12.00;99.90;;;;;;5093535;28;20447;-69
2022/09/17 01:30:37;;;;;;;7.60;2.63;;;12.00;99.90;;;;;;5094546;28;20438;-69
2022/09/17 01:33:11;;;;;;;4.73;2.47;;;12.00;99.90;;;;;;5094108;28;20434;-70
2022/09/17 01:35:46;;;;;;;5.50;2.80;;;12.00;99.90;;;;;;5094172;28;20438;-70
2022/09/17 01:38:21;;;;;;;6.87;2.77;;;12.00;99.90;;;;;;5094251;28;20443;-69
2022/09/17 01:40:53;;;;;;;8.17;3.27;;;12.10;99.90;;;;;;5094734;28;20433;-70
2022/09/17 01:43:25;;;;;;;8.07;2.30;;;12.10;99.90;;;;;;5094277;28;20434;-69
2022/09/17 01:45:57;;;;;;;7.50;3.07;;;12.10;99.90;;;;;;5094334;28;20461;-69
2022/09/17 01:48:29;;;;;;;4.20;2.57;;;12.10;99.90;;;;;;5094443;28;20928;-70
2022/09/17 01:51:00;;;;;;;5.80;2.73;;;12.10;99.90;;;;;;5093685;28;20448;-71
2022/09/17 01:53:41;;;;;;;6.57;3.00;;;12.10;99.90;;;;;;5094668;28;20457;-70
2022/09/17 01:56:10;;;;;;;4.93;2.53;;;12.10;99.90;;;;;;5096137;28;20437;-69
2022/09/17 01:58:43;;;;;;;6.60;2.13;;;12.10;99.90;;;;;;5096173;28;20524;-69
2022/09/17 02:01:15;;;;;;;7.47;2.83;;;12.20;99.90;;;;;;5096953;28;20493;-70
2022/09/17 02:03:48;;;;;;;8.40;3.70;;;12.10;99.90;;;;;;5096247;28;20465;-70
2022/09/17 02:06:17;;;;;;;9.67;2.90;;;12.10;99.90;;;;;;5095886;28;20504;-70
2022/09/17 02:08:52;;;;;;;8.00;3.90;;;12.10;99.90;;;;;;5096239;28;20551;-70
2022/09/17 02:11:20;;;;;;;5.30;3.33;;;12.10;99.90;;;;;;5096043;28;20487;-69
2022/09/17 02:13:53;;;;;;;5.97;2.70;;;12.10;99.90;;;;;;5096147;28;20544;-69
2022/09/17 02:16:25;;;;;;;4.63;2.70;;;12.00;99.90;;;;;;5096082;28;20442;-69
2022/09/17 02:19:00;;;;;;;9.80;3.27;;;12.00;99.90;;;;;;5097892;28;20842;-70
2022/09/17 02:21:33;;;;;;;12.20;4.03;;;12.00;99.90;;;;;;5097156;28;20825;-69
2022/09/17 02:24:07;;;;;;;9.30;3.90;;;11.90;99.90;;;;;;5096433;28;20462;-69
2022/09/17 02:26:37;;;;;;;17.10;3.77;;;12.00;99.90;;;;;;5096088;28;20444;-68
2022/09/17 02:29:09;;;;;;;8.83;3.70;;;11.90;99.90;;;;;;5095833;28;20457;-69
2022/09/17 02:31:41;;;;;;;9.43;4.63;;;12.00;99.90;;;;;;5095557;28;20452;-68
2022/09/17 02:34:08;;;;;;;8.10;5.83;;;12.00;99.90;;;;;;5096409;28;20785;-71
2022/09/17 02:36:35;;;;;;;16.33;7.00;;;12.00;99.90;;;;;;5096497;28;20458;-69
2022/09/17 02:39:04;;;;;;;13.70;6.67;;;12.00;99.90;;;;;;5095501;28;20457;-70
2022/09/17 02:41:40;;;;;;;12.57;5.80;;;12.00;99.90;;;;;;5096911;28;20457;-70
2022/09/17 02:44:18;;;;;;;12.93;5.73;;;12.00;99.90;;;;;;5096129;28;20475;-70
2022/09/17 02:47:26;;;;;;;16.93;8.30;;;12.00;99.90;;;;;;5095220;28;20444;-70
2022/09/17 02:50:17;;;;;;;10.90;7.60;;;12.00;99.90;;;;;;5053639;28;20594;-70
2022/09/17 02:52:56;;;;;;;10.20;7.07;;;12.00;99.90;;;;;;5053383;28;20455;-70
2022/09/17 02:55:30;;;;;;;13.50;7.73;;;12.00;99.90;;;;;;5053596;28;20445;-70
2022/09/17 02:58:06;;;;;;;16.13;7.10;;;12.00;99.90;;;;;;5054672;28;20871;-70
2022/09/17 03:00:34;;;;;;;12.67;6.70;;;12.10;99.90;;;;;;5053391;28;20482;-70
2022/09/17 03:03:08;;;;;;;22.37;5.73;;;12.00;99.90;;;;;;5053271;28;20542;-70
2022/09/17 03:05:37;;;;;;;6.30;5.30;;;12.00;99.90;;;;;;5052969;28;20506;-68
2022/09/17 03:08:08;;;;;;;13.70;5.27;;;12.10;99.90;;;;;;5053230;28;20458;-70
2022/09/17 03:10:35;;;;;;;14.73;5.80;;;12.00;99.90;;;;;;5052774;28;20489;-69
2022/09/17 03:13:02;;;;;;;10.90;5.43;;;12.10;99.90;;;;;;5052875;28;20542;-70
2022/09/17 03:15:30;;;;;;;12.40;5.60;;;12.10;99.90;;;;;;5053142;28;20447;-70
2022/09/17 03:17:56;;;;;;;11.53;5.30;;;12.10;99.90;;;;;;5052669;28;20455;-69
2022/09/17 03:20:25;;;;;;;13.57;5.90;;;12.10;99.90;;;;;;5053105;28;20462;-70
2022/09/17 03:22:52;;;;;;;10.10;4.77;;;12.10;99.90;;;;;;5053001;28;20451;-69
2022/09/17 03:25:19;;;;;;;13.33;4.40;;;12.20;99.90;;;;;;5059021;28;20584;-69
2022/09/17 03:27:47;;;;;;;11.63;4.67;;;12.10;99.90;;;;;;5094665;28;20453;-69
2022/09/17 03:30:14;;;;;;;16.00;4.63;;;12.10;99.90;;;;;;5094939;28;20529;-70
2022/09/17 03:32:41;;;;;;;6.37;4.00;;;12.10;99.90;;;;;;5095129;28;20457;-69
2022/09/17 03:35:08;;;;;;;7.50;3.90;;;12.20;99.90;;;;;;5094401;28;20537;-69
2022/09/17 03:37:36;;;;;;;13.87;5.50;;;12.20;99.90;;;;;;5094306;28;20544;-68
2022/09/17 03:40:03;;;;;;;13.23;3.97;;;12.20;99.90;;;;;;5094250;28;20548;-69
2022/09/17 03:42:30;;;;;;;15.80;4.80;;;12.20;99.90;;;;;;5094609;28;20453;-69
2022/09/17 03:44:57;;;;;;;12.77;3.90;;;12.20;99.90;;;;;;5094360;28;20477;-70
2022/09/17 03:47:24;;;;;;;11.63;3.80;;;12.20;99.90;;;;;;5094794;28;20483;-70
2022/09/17 03:49:51;;;;;;;7.57;3.57;;;12.20;99.90;;;;;;5094636;28;20547;-69
2022/09/17 03:52:19;;;;;;;18.03;4.80;;;12.20;99.90;;;;;;5098946;28;20453;-69
2022/09/17 03:54:47;;;;;;;13.77;3.50;;;12.20;99.90;;;;;;5098942;28;20459;-70
2022/09/17 03:57:14;;;;;;;9.10;3.43;;;12.20;99.90;;;;;;5098861;28;20544;-70
2022/09/17 03:59:41;;;;;;;9.00;3.40;;;12.20;99.90;;;;;;5098947;28;20540;-69
2022/09/17 04:02:08;;;;;;;5.20;3.20;;;12.20;99.90;;;;;;5098436;28;20947;-69
2022/09/17 04:04:35;;;;;;;7.60;2.80;;;12.20;99.90;;;;;;5097986;28;20949;-69
2022/09/17 04:07:02;;;;;;;11.47;3.10;;;12.20;99.90;;;;;;5097830;28;20805;-68
2022/09/17 04:09:29;;;;;;;12.63;3.87;;;12.20;99.90;;;;;;5098430;28;20453;-70
2022/09/17 04:11:58;;;;;;;10.83;3.67;;;12.20;99.90;;;;;;5098505;28;20441;-69
2022/09/17 04:14:25;;;;;;;6.50;3.17;;;12.20;99.90;;;;;;5098518;28;20449;-69
2022/09/17 04:16:52;;;;;;;7.70;3.30;;;12.20;99.90;;;;;;5099039;28;20976;-69
2022/09/17 04:19:19;;;;;;;11.53;3.37;;;12.20;99.90;;;;;;5099845;28;20453;-70
2022/09/17 04:21:45;;;;;;;7.63;3.53;;;12.20;99.90;;;;;;5098011;28;20453;-69
2022/09/17 04:24:12;;;;;;;8.30;3.37;;;12.30;99.90;;;;;;5099346;28;20453;-73
2022/09/17 04:26:39;;;;;;;4.40;2.60;;;12.30;99.90;;;;;;5098706;28;20996;-71
2022/09/17 15:09:00;;;;;;;1.23;0.60;;;17.40;99.90;;;;;;5116203;28;20175;-74
2022/09/17 15:11:29;;;;;;;2.60;0.70;;;17.60;99.90;;;;;;5115380;28;20187;-75
2022/09/17 15:13:57;;;;;;;2.40;0.60;;;17.60;99.90;;;;;;5115404;28;20546;-71
2022/09/17 15:16:29;;;;;;;1.63;0.60;;;17.60;99.90;;;;;;5115172;28;20448;-73
2022/09/17 15:18:58;;;;;;;1.30;0.60;;;17.60;99.90;;;;;;5115899;28;20436;-73
2022/09/17 15:21:30;;;;;;;1.30;0.70;;;17.50;99.90;;;;;;5115404;28;20488;-72
2022/09/17 15:24:04;;;;;;;3.73;0.70;;;17.20;99.90;;;;;;5115830;28;20440;-74
2022/09/17 15:26:37;;;;;;;1.30;0.53;;;17.10;99.90;;;;;;5123798;28;20988;-73
2022/09/17 15:29:05;;;;;;;1.83;0.73;;;17.20;99.90;;;;;;5117313;28;20444;-73
2022/09/17 15:31:32;;;;;;;3.50;0.97;;;17.20;99.90;;;;;;5115400;28;20467;-74
2022/09/17 15:34:00;;;;;;;1.00;0.60;;;17.10;99.90;;;;;;5115324;28;20976;-74
2022/09/17 15:36:28;;;;;;;1.00;0.60;;;16.80;99.90;;;;;;5115299;28;20732;-73
2022/09/17 15:38:55;;;;;;;2.90;0.70;;;16.80;99.90;;;;;;5115460;28;20453;-73
2022/09/17 15:41:31;;;;;;;1.30;0.70;;;16.80;99.90;;;;;;5115327;28;20462;-72
2022/09/17 15:44:13;;;;;;;2.80;0.83;;;16.80;99.90;;;;;;5077801;28;20532;-72
2022/09/17 15:46:40;;;;;;;2.90;1.23;;;16.60;99.90;;;;;;5073728;28;20466;-74
2022/09/17 15:49:27;;;;;;;4.07;0.90;;;16.70;99.90;;;;;;5074597;28;20846;-73
2022/09/17 15:51:53;;;;;;;3.47;0.70;;;16.60;99.90;;;;;;5074731;28;20438;-75
2022/09/17 15:54:29;;;;;;;1.40;0.70;;;16.60;99.90;;;;;;5074775;28;20536;-73
2022/09/17 15:57:01;;;;;;;4.40;2.20;;;16.60;99.90;;;;;;5074408;28;20434;-74
2022/09/17 15:59:30;;;;;;;2.50;0.70;;;16.40;99.90;;;;;;5074480;28;20434;-73
2022/09/17 16:01:58;;;;;;;2.90;0.80;;;15.80;99.90;;;;;;5074591;28;20537;-75
2022/09/17 16:04:30;;;;;;;3.63;0.83;;;15.30;99.90;;;;;;5074630;28;20440;-75
2022/09/17 16:07:00;;;;;;;1.47;0.60;;;14.90;99.90;;;;;;5074551;28;20462;-76
2022/09/17 16:09:39;;;;;;;7.40;1.00;;;14.60;99.90;;;;;;5074711;28;20496;-74
2022/09/17 16:12:07;;;;;;;1.80;0.80;;;14.50;99.90;;;;;;5074431;28;20501;-74
2022/09/17 16:14:34;;;;;;;3.33;0.83;;;14.40;99.90;;;;;;5075503;28;20524;-74
2022/09/17 16:17:17;;;;;;;1.60;0.70;;;14.40;99.90;;;;;;5076146;28;20450;-74
2022/09/17 16:19:44;;;;;;;1.23;0.70;;;14.30;99.90;;;;;;5074190;28;20909;-75
2022/09/17 16:22:10;;;;;;;1.50;0.80;;;14.10;99.90;;;;;;5074553;28;20537;-75
2022/09/17 16:24:37;;;;;;;3.00;1.20;;;13.90;99.90;;;;;;5074197;28;20567;-75
2022/09/17 16:27:07;;;;;;;3.13;1.03;;;13.80;99.90;;;;;;5074885;28;20815;-75
2022/09/17 16:29:34;;;;;;;1.90;0.70;;;13.70;99.90;;;;;;5075442;28;20542;-75
2022/09/17 16:32:01;;;;;;;2.47;0.80;;;13.60;99.90;;;;;;5074271;28;20919;-75
2022/09/17 16:34:27;;;;;;;1.40;1.00;;;13.60;99.90;;;;;;5073653;28;20520;-75
2022/09/17 16:36:54;;;;;;;1.80;0.93;;;13.50;99.90;;;;;;5074072;28;20454;-74
2022/09/17 16:39:21;;;;;;;1.70;0.83;;;13.40;99.90;;;;;;5074045;28;20541;-74
2022/09/17 16:41:48;;;;;;;1.83;0.80;;;13.30;99.90;;;;;;5074511;28;20665;-74
2022/09/17 16:44:16;;;;;;;2.57;0.87;;;13.20;99.90;;;;;;5088089;28;20474;-74
2022/09/17 16:46:43;;;;;;;3.60;1.20;;;13.10;99.90;;;;;;5112019;28;20490;-74
2022/09/17 16:49:10;;;;;;;1.67;1.17;;;13.10;99.90;;;;;;5115390;28;20543;-74
2022/09/17 16:51:39;;;;;;;2.23;1.00;;;13.00;99.90;;;;;;5115204;28;20491;-74
2022/09/17 16:54:06;;;;;;;2.37;0.90;;;12.90;99.90;;;;;;5114959;28;20463;-74
2022/09/17 16:56:33;;;;;;;5.33;1.23;;;12.90;99.90;;;;;;5115122;28;20482;-74
2022/09/17 16:59:00;;;;;;;2.53;1.10;;;12.80;99.90;;;;;;5118309;28;20463;-74
2022/09/17 17:01:28;;;;;;;2.13;1.10;;;12.80;99.90;;;;;;5119592;28;20452;-73
2022/09/17 17:03:58;;;;;;;3.63;0.90;;;12.80;99.90;;;;;;5118057;28;20480;-74
2022/09/17 17:06:25;;;;;;;1.10;0.80;;;12.80;99.90;;;;;;5117776;28;20526;-75
2022/09/17 17:08:52;;;;;;;2.77;0.93;;;12.70;99.90;;;;;;5118459;28;20452;-74
2022/09/17 17:11:19;;;;;;;2.67;0.90;;;12.70;99.90;;;;;;5118399;28;20929;-74
2022/09/17 17:13:46;;;;;;;4.70;1.20;;;12.70;99.90;;;;;;5117654;28;20452;-74
2022/09/17 17:16:14;;;;;;;3.23;1.30;;;12.70;99.90;;;;;;5117573;28;20487;-74
2022/09/17 17:18:44;;;;;;;4.03;1.10;;;12.70;99.90;;;;;;5117785;28;20456;-75
2022/09/17 17:21:13;;;;;;;3.00;0.90;;;12.70;99.90;;;;;;5117802;28;20495;-73
2022/09/17 17:23:42;;;;;;;3.23;1.10;;;12.70;99.90;;;;;;5117778;28;20462;-74
2022/09/17 17:26:09;;;;;;;3.00;1.00;;;12.70;99.90;;;;;;5117736;28;20825;-75
2022/09/17 17:28:36;;;;;;;2.00;1.10;;;12.70;99.90;;;;;;5117542;28;20788;-74
2022/09/17 17:31:04;;;;;;;1.70;0.90;;;12.70;99.90;;;;;;5117521;28;20472;-74
2022/09/17 17:33:30;;;;;;;2.43;1.03;;;12.70;99.90;;;;;;5117596;28;20458;-76
2022/09/17 17:36:01;;;;;;;2.10;1.00;;;12.60;99.90;;;;;;5117486;28;20484;-75
2022/09/17 17:38:28;;;;;;;3.23;0.93;;;12.60;99.90;;;;;;5117428;28;20807;-76
2022/09/17 17:41:03;;;;;;;1.60;1.07;;;12.60;99.90;;;;;;5117476;28;20459;-75
2022/09/17 17:43:30;;;;;;;2.03;1.07;;;12.60;99.90;;;;;;5117699;28;20523;-76
2022/09/17 17:45:57;;;;;;;2.27;1.20;;;12.60;99.90;;;;;;5117246;28;20480;-75
2022/09/17 17:48:24;;;;;;;2.43;1.00;;;12.50;99.90;;;;;;5117021;28;20462;-75
2022/09/17 18:00:59;;;;;;;2.60;1.00;;;12.30;99.90;;;;;;5117268;28;20414;-75
2022/09/17 18:03:26;;;;;;;2.50;1.20;;;12.30;99.90;;;;;;5118304;28;20579;-72
2022/09/17 18:05:55;;;;;;;2.07;0.90;;;12.20;99.90;;;;;;5117637;28;20511;-73
2022/09/17 18:08:22;;;;;;;4.23;0.97;;;12.20;99.90;;;;;;5117130;28;20492;-72
2022/09/17 18:10:53;;;;;;;3.43;1.13;;;12.10;99.90;;;;;;5116416;28;20464;-72
2022/09/17 18:13:20;;;;;;;3.40;1.20;;;12.10;99.90;;;;;;5116789;28;20884;-73
2022/09/17 18:19:11;;;;;;;2.23;1.60;;;12.00;99.90;;;;;;5116880;28;20426;-73
2022/09/17 18:21:38;;;;;;;2.80;1.40;;;11.90;99.90;;;;;;5116984;28;20452;-73
2022/09/17 18:24:05;;;;;;;1.77;0.97;;;11.80;99.90;;;;;;5116631;28;20836;-73
2022/09/17 18:26:33;;;;;;;2.83;1.00;;;11.80;99.90;;;;;;5116371;28;20567;-73
2022/09/17 18:29:00;;;;;;;2.33;1.13;;;11.70;99.90;;;;;;5116550;28;20505;-73
2022/09/17 18:31:28;;;;;;;3.30;1.77;;;11.70;99.90;;;;;;5115998;28;20460;-72
2022/09/17 18:33:57;;;;;;;3.27;1.23;;;11.70;99.90;;;;;;5116255;28;20544;-74
2022/09/17 18:36:26;;;;;;;2.60;1.10;;;11.70;99.90;;;;;;5116424;28;20746;-74
2022/09/17 18:38:55;;;;;;;2.90;1.37;;;11.70;99.90;;;;;;5116201;28;20457;-73
2022/09/17 18:41:22;;;;;;;1.87;1.33;;;11.70;99.90;;;;;;5116448;28;20518;-74
2022/09/17 18:43:49;;;;;;;9.47;1.40;;;11.80;99.90;;;;;;5116082;28;20866;-74
2022/09/17 18:46:16;;;;;;;3.50;1.40;;;11.70;99.90;;;;;;5115734;28;21031;-73
2022/09/17 18:48:43;;;;;;;3.03;1.37;;;11.70;99.90;;;;;;5095592;28;20489;-74
2022/09/17 18:51:14;;;;;;;3.77;1.50;;;11.70;99.90;;;;;;5095928;28;20759;-74
2022/09/17 18:53:42;;;;;;;5.73;1.37;;;11.60;99.90;;;;;;5095889;28;20560;-74
2022/09/17 18:56:15;;;;;;;6.03;1.33;;;11.60;99.90;;;;;;5095118;28;20454;-73
2022/09/17 18:58:42;;;;;;;4.17;1.70;;;11.60;99.90;;;;;;5095566;28;20438;-74
2022/09/17 19:01:09;;;;;;;3.30;1.50;;;11.60;99.90;;;;;;5097280;28;20488;-74
2022/09/17 19:03:36;;;;;;;5.10;1.50;;;11.70;99.90;;;;;;5095619;28;20481;-74
2022/09/17 19:06:04;;;;;;;5.40;1.40;;;11.70;99.90;;;;;;5095356;28;20798;-73
2022/09/17 19:08:31;;;;;;;2.60;1.40;;;11.70;99.90;;;;;;5095403;28;20475;-74
2022/09/17 19:11:00;;;;;;;2.10;1.23;;;11.70;99.90;;;;;;5095206;28;20460;-74
2022/09/17 19:13:32;;;;;;;3.83;2.03;;;11.80;99.90;;;;;;5095679;28;20464;-74
2022/09/17 19:15:59;;;;;;;2.13;1.30;;;11.80;99.90;;;;;;5095554;28;20471;-73
2022/09/17 19:18:26;;;;;;;3.43;1.80;;;11.80;99.90;;;;;;5095283;28;20468;-74
2022/09/17 19:20:59;;;;;;;4.90;1.83;;;11.80;99.90;;;;;;5094910;28;20460;-73
2022/09/17 19:23:26;;;;;;;2.90;1.57;;;11.70;99.90;;;;;;5095479;28;20441;-73
2022/09/17 19:25:53;;;;;;;3.63;1.93;;;11.70;99.90;;;;;;5095170;28;20485;-73
2022/09/17 19:28:21;;;;;;;3.17;1.93;;;11.70;99.90;;;;;;5095354;28;20461;-73
2022/09/17 19:30:49;;;;;;;4.63;1.40;;;11.70;99.90;;;;;;5095593;28;20887;-73
2022/09/17 19:33:15;;;;;;;2.17;1.50;;;11.70;99.90;;;;;;5095467;28;20529;-73
2022/09/17 19:35:42;;;;;;;3.63;1.73;;;11.70;99.90;;;;;;5095471;28;20545;-73
2022/09/17 19:38:11;;;;;;;4.73;1.90;;;11.70;99.90;;;;;;5095275;28;20489;-73
2022/09/17 19:40:37;;;;;;;5.10;2.03;;;11.70;99.90;;;;;;5095190;28;20453;-73
2022/09/17 19:43:06;;;;;;;4.13;2.70;;;11.60;99.90;;;;;;5094975;28;20923;-73
2022/09/17 19:45:34;;;;;;;4.60;3.07;;;11.60;99.90;;;;;;5095311;28;20465;-73
2022/09/17 19:48:02;;;;;;;5.50;3.40;;;11.60;99.90;;;;;;5094868;28;20572;-73
2022/09/17 19:50:32;;;;;;;3.50;2.57;;;11.60;99.90;;;;;;5095583;28;20468;-73
2022/09/17 19:52:59;;;;;;;4.73;2.83;;;11.60;99.90;;;;;;5095447;28;20552;-74
2022/09/17 19:55:25;;;;;;;3.90;1.90;;;11.50;99.90;;;;;;5094942;28;20532;-74
2022/09/17 19:57:52;;;;;;;5.50;1.80;;;11.50;99.90;;;;;;5095188;28;20481;-73
2022/09/17 20:00:19;;;;;;;3.60;2.03;;;11.50;99.90;;;;;;5094874;28;20464;-73
2022/09/17 20:02:49;;;;;;;4.07;2.43;;;11.50;99.90;;;;;;5094887;28;20552;-73
2022/09/17 20:05:16;;;;;;;7.13;2.47;;;11.40;99.90;;;;;;5094716;28;20465;-72
2022/09/17 20:07:43;;;;;;;3.80;2.40;;;11.40;99.90;;;;;;5094983;28;20559;-74
2022/09/17 20:10:10;;;;;;;4.30;2.60;;;11.40;99.90;;;;;;5094953;28;20910;-74
2022/09/17 20:12:37;;;;;;;4.60;1.83;;;11.40;99.90;;;;;;5094250;28;20572;-73
2022/09/17 20:15:04;;;;;;;4.60;2.07;;;11.40;99.90;;;;;;5094495;28;20552;-74
2022/09/17 20:17:32;;;;;;;5.50;2.23;;;11.40;99.90;;;;;;5094930;28;20472;-74
2022/09/17 20:20:04;;;;;;;2.57;1.70;;;11.40;99.90;;;;;;5094733;28;20457;-73
2022/09/17 20:22:31;;;;;;;4.37;1.97;;;11.40;99.90;;;;;;5094362;28;20464;-73
2022/09/17 20:24:58;;;;;;;2.10;1.77;;;11.40;99.90;;;;;;5094189;28;20461;-73
2022/09/17 20:27:25;;;;;;;5.23;2.17;;;11.40;99.90;;;;;;5094765;28;20481;-73
2022/09/17 20:29:52;;;;;;;2.90;2.33;;;11.40;99.90;;;;;;5094211;28;20530;-73
2022/09/17 20:32:19;;;;;;;3.20;2.10;;;11.40;99.90;;;;;;5095073;28;20849;-73
2022/09/17 20:34:45;;;;;;;3.43;2.20;;;11.40;99.90;;;;;;5098349;28;20526;-72
2022/09/17 20:37:17;;;;;;;5.40;2.63;;;11.40;99.90;;;;;;5098222;28;20481;-71
2022/09/17 20:39:44;;;;;;;4.27;2.03;;;11.40;99.90;;;;;;5098307;28;20493;-73
2022/09/17 20:42:11;;;;;;;4.70;2.10;;;11.40;99.90;;;;;;5098079;28;20774;-72
2022/09/17 20:44:38;;;;;;;5.50;2.13;;;11.40;99.90;;;;;;5097515;28;20521;-77
2022/09/17 20:47:05;;;;;;;2.97;2.10;;;11.40;99.90;;;;;;5098278;28;20800;-76
2022/09/17 20:49:32;;;;;;;25.43;16.43;;;11.50;99.90;;;;;;5098691;28;20480;-77
2022/09/17 20:51:59;;;;;;;4.37;2.43;;;11.60;99.90;;;;;;5099086;28;20469;-77
2022/09/17 20:54:27;;;;;;;8.40;2.17;;;11.60;99.90;;;;;;5099279;28;20453;-77
2022/09/17 20:56:54;;;;;;;4.07;2.70;;;11.60;99.90;;;;;;5099408;28;20812;-77
2022/09/17 20:59:23;;;;;;;3.90;2.40;;;11.70;99.90;;;;;;5100063;28;20545;-76
2022/09/17 21:01:52;;;;;;;5.67;2.17;;;11.70;99.90;;;;;;5100411;28;20453;-76
2022/09/17 21:04:20;;;;;;;11.40;2.50;;;11.60;99.90;;;;;;5099396;28;20433;-76
2022/09/17 21:06:50;;;;;;;3.50;2.60;;;11.60;99.90;;;;;;5099106;28;20808;-76
2022/09/17 21:09:17;;;;;;;4.20;2.50;;;11.60;99.90;;;;;;5100437;28;20460;-76
2022/09/17 21:11:47;;;;;;;5.67;2.93;;;11.60;99.90;;;;;;5100390;28;20982;-77
2022/09/17 21:14:19;;;;;;;3.10;2.43;;;11.60;99.90;;;;;;5098993;28;20445;-77
2022/09/17 21:16:50;;;;;;;4.93;2.67;;;11.60;99.90;;;;;;5099742;28;20460;-76
2022/09/17 21:19:23;;;;;;;4.43;2.37;;;11.60;99.90;;;;;;5101370;28;20488;-76
2022/09/17 21:21:53;;;;;;;5.37;2.60;;;11.50;99.90;;;;;;5101937;28;20446;-77
2022/09/17 21:24:20;;;;;;;5.60;3.00;;;11.50;99.90;;;;;;5099215;28;20510;-70
2022/09/17 21:26:50;;;;;;;4.70;3.17;;;11.60;99.90;;;;;;5097854;28;20564;-68
2022/09/17 21:29:20;;;;;;;6.30;2.87;;;11.50;99.90;;;;;;5097469;28;20465;-69
2022/09/17 21:31:47;;;;;;;2.70;2.37;;;11.50;99.90;;;;;;5097463;28;20796;-69
2022/09/17 21:34:15;;;;;;;3.83;2.60;;;11.60;99.90;;;;;;5097596;28;20489;-69
2022/09/17 21:36:44;;;;;;;4.03;2.90;;;11.50;99.90;;;;;;5097249;28;20978;-69
2022/09/17 21:39:13;;;;;;;6.00;3.13;;;11.50;99.90;;;;;;5097361;28;20899;-68
2022/09/17 21:41:40;;;;;;;4.30;2.53;;;11.50;99.90;;;;;;5097938;28;20476;-68
2022/09/17 21:44:09;;;;;;;4.60;3.07;;;11.60;99.90;;;;;;5097102;28;20464;-69
2022/09/17 21:46:36;;;;;;;5.50;2.63;;;11.50;99.90;;;;;;5096810;28;20548;-70
2022/09/17 21:49:04;;;;;;;4.33;2.43;;;11.50;99.90;;;;;;5097204;28;20453;-70
2022/09/17 21:51:34;;;;;;;6.43;2.60;;;11.50;99.90;;;;;;5096994;28;20781;-68
2022/09/17 21:54:03;;;;;;;4.00;2.57;;;11.60;99.90;;;;;;5097096;28;20915;-68
2022/09/17 21:56:31;;;;;;;3.83;2.70;;;11.60;99.90;;;;;;5097027;28;20453;-68
2022/09/17 21:59:00;;;;;;;6.67;2.23;;;11.70;99.90;;;;;;5096887;28;20457;-69
2022/09/17 22:01:30;;;;;;;4.97;2.30;;;11.70;99.90;;;;;;5096817;28;20553;-69
2022/09/17 22:03:58;;;;;;;6.90;2.50;;;11.70;99.90;;;;;;5096199;28;20507;-68
2022/09/17 22:06:27;;;;;;;8.93;3.00;;;11.70;99.90;;;;;;5096616;28;20544;-68
2022/09/17 22:08:54;;;;;;;3.87;2.20;;;11.70;99.90;;;;;;5098971;28;20488;-69
2022/09/17 22:11:24;;;;;;;3.20;1.90;;;11.70;99.90;;;;;;5098802;28;20449;-69
2022/09/17 22:13:53;;;;;;;4.93;2.43;;;11.60;99.90;;;;;;5097057;28;20457;-69
2022/09/17 22:16:21;;;;;;;5.07;2.40;;;11.60;99.90;;;;;;5097746;28;20453;-70
2022/09/17 22:18:51;;;;;;;4.13;2.40;;;11.60;99.90;;;;;;5098192;28;20922;-70
2022/09/17 22:21:19;;;;;;;6.47;2.30;;;11.70;99.90;;;;;;5097518;28;20453;-70
2022/09/17 22:23:47;;;;;;;7.37;3.40;;;11.60;99.90;;;;;;5098292;28;20460;-69
2022/09/17 22:26:15;;;;;;;5.47;2.77;;;11.60;99.90;;;;;;5098921;28;20489;-69
2022/09/17 22:28:43;;;;;;;4.10;2.57;;;11.60;99.90;;;;;;5098293;28;20560;-69
2022/09/17 22:31:12;;;;;;;6.57;3.20;;;11.60;99.90;;;;;;5098314;28;20873;-71
2022/09/17 22:33:40;;;;;;;5.13;2.70;;;11.60;99.90;;;;;;5098521;28;21016;-71
2022/09/17 22:36:10;;;;;;;4.33;2.67;;;11.60;99.90;;;;;;5098206;28;20460;-70
2022/09/17 22:38:37;;;;;;;7.03;2.90;;;11.60;99.90;;;;;;5100678;28;20460;-70
2022/09/17 22:41:06;;;;;;;5.57;2.43;;;11.60;99.90;;;;;;5098896;28;20457;-70
2022/09/17 22:43:34;;;;;;;5.20;2.70;;;11.70;99.90;;;;;;5100002;28;20548;-69
2022/09/17 22:46:01;;;;;;;7.17;2.50;;;11.70;99.90;;;;;;5097611;28;20914;-69
2022/09/17 22:48:28;;;;;;;3.20;2.37;;;11.70;99.90;;;;;;5101935;28;20469;-70
2022/09/17 22:50:55;;;;;;;3.73;2.63;;;11.80;99.90;;;;;;5103295;28;20477;-69
2022/09/17 22:53:23;;;;;;;5.47;2.90;;;11.70;99.90;;;;;;5106651;28;20464;-69
2022/09/17 22:55:54;;;;;;;4.27;2.20;;;11.70;99.90;;;;;;5099498;28;20555;-70
2022/09/17 22:58:23;;;;;;;4.33;2.80;;;11.80;99.90;;;;;;5100017;28;20507;-70
2022/09/17 23:00:50;;;;;;;6.70;2.33;;;11.80;99.90;;;;;;5099185;28;20500;-70
2022/09/17 23:03:17;;;;;;;6.20;2.47;;;11.90;99.90;;;;;;5098669;28;20495;-70
2022/09/17 23:05:44;;;;;;;4.57;2.70;;;12.00;99.90;;;;;;5098894;28;20492;-70
2022/09/17 23:08:12;;;;;;;3.83;2.40;;;12.00;99.90;;;;;;5097019;28;20520;-69
2022/09/17 23:10:40;;;;;;;3.20;2.90;;;12.00;99.90;;;;;;5095537;28;20827;-69
2022/09/17 23:13:09;;;;;;;7.00;2.47;;;12.00;99.90;;;;;;5095142;28;20511;-69
2022/09/17 23:15:36;;;;;;;5.33;2.40;;;12.00;99.90;;;;;;5095413;28;20663;-69
2022/09/17 23:18:03;;;;;;;6.13;2.40;;;12.10;99.90;;;;;;5096873;28;20920;-70
2022/09/17 23:20:30;;;;;;;4.13;2.47;;;12.10;99.90;;;;;;5098610;28;20837;-70
2022/09/17 23:22:57;;;;;;;3.03;2.40;;;12.10;99.90;;;;;;5100138;28;20508;-70
2022/09/17 23:25:24;;;;;;;5.07;2.60;;;12.10;99.90;;;;;;5099433;28;20489;-71
2022/09/17 23:27:54;;;;;;;3.83;2.87;;;12.00;99.90;;;;;;5096859;28;20599;-68
2022/09/17 23:30:21;;;;;;;3.43;2.90;;;12.00;99.90;;;;;;5100510;28;20460;-70
2022/09/17 23:32:47;;;;;;;4.70;2.70;;;12.00;99.90;;;;;;5102181;28;20529;-69
2022/09/17 23:35:14;;;;;;;6.20;2.97;;;12.10;99.90;;;;;;5102628;28;20457;-70
2022/09/17 23:37:41;;;;;;;4.80;2.13;;;12.10;99.90;;;;;;5099697;28;20517;-70
2022/09/17 23:40:09;;;;;;;5.50;2.40;;;12.10;99.90;;;;;;5100149;28;20457;-70
2022/09/17 23:42:36;;;;;;;2.43;2.10;;;12.20;99.90;;;;;;5095409;28;20507;-69
2022/09/17 23:45:06;;;;;;;6.47;3.60;;;12.10;99.90;;;;;;5095454;28;20482;-69
2022/09/17 23:47:33;;;;;;;5.50;2.10;;;12.20;99.90;;;;;;5096679;28;20660;-70
2022/09/17 23:49:59;;;;;;;3.50;2.47;;;12.20;99.90;;;;;;5102124;28;20540;-70